TimeCST,TemperatureF,Dew PointF,Humidity,Sea Level PressureIn,VisibilityMPH,Wind Direction,Wind SpeedMPH,Gust SpeedMPH,PrecipitationIn,Events,Conditions,WindDirDegrees,DateUTC
12:15 AM,-9.6,-16.2,73,30.36,10.0,SW,8.1,-,N/A,,Clear,220,2014-01-24 06:15:00
12:35 AM,-9.4,-15.7,74,30.34,10.0,SW,9.2,-,N/A,,Clear,220,2014-01-24 06:35:00
12:55 AM,-8.9,-15.0,75,30.32,10.0,SW,8.1,-,N/A,,Clear,230,2014-01-24 06:55:00
1:15 AM,-7.6,-13.7,75,30.31,10.0,SW,12.7,18.4,N/A,,Clear,230,2014-01-24 07:15:00
1:35 AM,-6.5,-12.5,75,30.29,10.0,SW,13.8,19.6,N/A,,Clear,230,2014-01-24 07:35:00
1:55 AM,-5.8,-11.4,77,30.28,10.0,SW,11.5,-,N/A,,Clear,230,2014-01-24 07:55:00
2:15 AM,-5.4,-11.4,76,30.27,10.0,SW,13.8,-,N/A,,Clear,230,2014-01-24 08:15:00
2:35 AM,-5.3,-11.2,76,30.25,10.0,SW,10.4,17.3,N/A,,Clear,230,2014-01-24 08:35:00
2:55 AM,-4.0,-10.3,74,30.23,10.0,SW,16.1,26.5,N/A,,Clear,230,2014-01-24 08:55:00
3:15 AM,-2.9,-9.4,74,30.21,10.0,SW,18.4,25.3,N/A,,Scattered Clouds,220,2014-01-24 09:15:00
3:35 AM,-0.9,-8.7,70,30.19,10.0,SW,18.4,24.2,N/A,,Scattered Clouds,220,2014-01-24 09:35:00
3:55 AM,-0.0,-8.5,68,30.16,10.0,SW,13.8,24.2,N/A,,Scattered Clouds,220,2014-01-24 09:55:00
4:15 AM,1.2,-8.5,64,30.13,10.0,SW,18.4,21.9,N/A,,Clear,220,2014-01-24 10:15:00
4:35 AM,1.9,-8.1,63,30.10,7.0,SSW,17.3,23.0,N/A,,Clear,200,2014-01-24 10:35:00
4:55 AM,1.9,-8.0,63,30.08,10.0,SSW,15.0,21.9,N/A,,Scattered Clouds,210,2014-01-24 10:55:00
5:15 AM,2.3,-7.6,63,30.05,7.0,SSW,18.4,25.3,N/A,,Mostly Cloudy,210,2014-01-24 11:15:00
5:35 AM,2.8,-7.4,62,30.03,10.0,SSW,17.3,25.3,N/A,,Overcast,210,2014-01-24 11:35:00
5:55 AM,3.2,-7.2,62,30.00,10.0,SSW,17.3,-,N/A,,Overcast,210,2014-01-24 11:55:00
6:15 AM,5.0,-6.7,59,29.97,10.0,SSW,17.3,-,N/A,,Overcast,210,2014-01-24 12:15:00
6:35 AM,7.3,-5.8,55,29.95,5.0,SW,21.9,31.1,N/A,,Haze,220,2014-01-24 12:35:00
6:55 AM,8.2,-5.1,55,29.93,7.0,SW,20.7,29.9,N/A,,Overcast,220,2014-01-24 12:55:00
7:15 AM,8.6,-4.9,54,29.92,10.0,SW,19.6,24.2,N/A,,Overcast,230,2014-01-24 13:15:00
7:35 AM,8.6,-4.0,57,29.90,4.0,SW,23.0,33.4,N/A,,Haze,220,2014-01-24 13:35:00
7:55 AM,8.6,-4.0,57,29.88,10.0,SW,18.4,28.8,N/A,,Overcast,220,2014-01-24 13:55:00
8:15 AM,8.6,-3.6,58,29.86,10.0,SW,17.3,25.3,N/A,,Overcast,230,2014-01-24 14:15:00
8:35 AM,9.3,-3.1,57,29.84,10.0,SW,15.0,27.6,N/A,,Overcast,230,2014-01-24 14:35:00
8:55 AM,10.2,-2.0,58,29.85,10.0,SW,13.8,26.5,N/A,,Overcast,230,2014-01-24 14:55:00
9:15 AM,11.1,-1.3,57,29.84,10.0,SW,16.1,21.9,N/A,,Overcast,230,2014-01-24 15:15:00
9:35 AM,11.7,-0.6,58,29.83,10.0,SW,18.4,24.2,N/A,,Overcast,230,2014-01-24 15:35:00
9:55 AM,12.0,-0.2,58,29.81,10.0,SW,18.4,23.0,N/A,,Overcast,230,2014-01-24 15:55:00
10:15 AM,12.4,0.5,59,29.80,10.0,SW,15.0,21.9,N/A,,Overcast,230,2014-01-24 16:15:00
10:35 AM,13.1,0.7,58,29.79,10.0,SW,11.5,20.7,N/A,,Overcast,230,2014-01-24 16:35:00
10:55 AM,13.6,1.6,59,29.78,10.0,SW,17.3,23.0,N/A,,Overcast,220,2014-01-24 16:55:00
11:15 AM,13.8,2.1,60,29.76,10.0,SW,17.3,21.9,N/A,,Overcast,220,2014-01-24 17:15:00
11:35 AM,14.5,2.5,59,29.76,10.0,SW,15.0,24.2,N/A,,Overcast,230,2014-01-24 17:35:00
11:55 AM,15.4,3.7,60,29.72,10.0,SW,15.0,24.2,N/A,,Overcast,230,2014-01-24 17:55:00
12:15 PM,15.8,4.1,60,29.68,10.0,SW,20.7,27.6,N/A,,Overcast,230,2014-01-24 18:15:00
12:35 PM,16.5,4.6,60,29.68,10.0,SW,20.7,27.6,N/A,,Overcast,230,2014-01-24 18:35:00
12:55 PM,16.7,5.2,61,29.66,10.0,SW,18.4,25.3,N/A,,Overcast,230,2014-01-24 18:55:00
1:15 PM,17.6,6.1,61,29.64,10.0,SW,17.3,23.0,N/A,,Overcast,230,2014-01-24 19:15:00
1:35 PM,18.5,7.0,61,29.62,10.0,WSW,16.1,24.2,N/A,,Overcast,240,2014-01-24 19:35:00
1:55 PM,19.4,7.7,60,29.61,10.0,WSW,16.1,21.9,N/A,,Overcast,240,2014-01-24 19:55:00
2:15 PM,19.4,8.4,62,29.59,10.0,SW,18.4,24.2,N/A,,Overcast,230,2014-01-24 20:15:00
2:35 PM,20.1,9.1,62,29.58,10.0,SW,17.3,28.8,N/A,,Overcast,230,2014-01-24 20:35:00
2:55 PM,20.7,9.3,62,29.56,10.0,SW,21.9,26.5,N/A,,Overcast,230,2014-01-24 20:55:00
3:15 PM,21.0,10.0,63,29.57,10.0,WSW,18.4,21.9,N/A,,Overcast,240,2014-01-24 21:15:00
3:35 PM,21.2,10.6,64,29.55,10.0,SW,15.0,-,N/A,,Overcast,230,2014-01-24 21:35:00
3:55 PM,21.7,10.9,63,29.55,10.0,SW,15.0,20.7,N/A,,Overcast,230,2014-01-24 21:55:00
4:15 PM,22.1,12.0,65,29.55,10.0,SW,15.0,23.0,N/A,,Overcast,230,2014-01-24 22:15:00
4:35 PM,22.5,12.4,65,29.54,10.0,SW,15.0,18.4,N/A,,Overcast,230,2014-01-24 22:35:00
4:55 PM,22.6,12.9,66,29.53,10.0,SW,13.8,-,N/A,,Overcast,230,2014-01-24 22:55:00
5:15 PM,23.0,13.3,66,29.52,10.0,SW,13.8,19.6,N/A,,Overcast,230,2014-01-24 23:15:00
5:35 PM,23.5,13.8,66,29.50,10.0,SW,13.8,-,N/A,,Overcast,230,2014-01-24 23:35:00
5:55 PM,23.7,14.2,67,29.50,10.0,SW,17.3,26.5,N/A,,Overcast,230,2014-01-24 23:55:00
6:15 PM,24.1,14.7,68,29.48,10.0,SW,17.3,23.0,N/A,,Overcast,230,2014-01-25 00:15:00
6:35 PM,24.6,15.3,68,29.46,10.0,SW,18.4,21.9,N/A,,Overcast,230,2014-01-25 00:35:00
6:55 PM,25.2,16.7,70,29.46,4.0,WSW,16.1,24.2,N/A,Snow,Light Snow,240,2014-01-25 00:55:00
7:15 PM,25.3,18.5,75,29.45,2.5,WSW,15.0,24.2,N/A,Snow,Light Snow,240,2014-01-25 01:15:00
7:35 PM,25.2,19.8,80,29.44,2.5,WSW,13.8,20.7,N/A,Snow,Light Snow,240,2014-01-25 01:35:00
7:55 PM,25.3,20.7,82,29.43,4.0,WSW,12.7,19.6,N/A,Snow,Light Snow,250,2014-01-25 01:55:00
8:15 PM,25.9,21.4,83,29.42,5.0,WSW,15.0,20.7,N/A,Snow,Light Snow,250,2014-01-25 02:15:00
8:35 PM,26.6,22.1,83,29.41,4.0,WSW,12.7,19.6,N/A,Snow,Light Snow,250,2014-01-25 02:35:00
8:55 PM,26.8,23.2,86,29.40,1.5,WSW,10.4,18.4,N/A,Snow,Light Snow,240,2014-01-25 02:55:00
9:15 PM,27.1,24.1,88,29.39,1.2,WSW,9.2,-,N/A,Snow,Light Snow,250,2014-01-25 03:15:00
9:35 PM,27.5,25.0,90,29.39,2.0,West,8.1,-,N/A,Snow,Light Snow,260,2014-01-25 03:35:00
9:55 PM,28.4,25.5,89,29.38,4.0,WSW,8.1,-,N/A,Snow,Light Snow,250,2014-01-25 03:55:00
10:15 PM,28.4,25.7,90,29.37,7.0,WSW,9.2,-,N/A,Snow,Light Snow,250,2014-01-25 04:15:00
10:35 PM,28.6,26.2,91,29.37,3.0,West,8.1,-,N/A,Snow,Light Snow,270,2014-01-25 04:35:00
10:55 PM,29.1,26.6,90,29.37,10.0,WNW,3.5,-,N/A,,Overcast,300,2014-01-25 04:55:00
11:15 PM,28.9,26.6,91,29.37,7.0,West,5.8,-,N/A,Snow,Light Snow,280,2014-01-25 05:15:00
11:35 PM,29.3,27.3,92,29.37,10.0,WNW,5.8,-,N/A,,Overcast,290,2014-01-25 05:35:00
11:55 PM,30.0,27.3,90,29.37,10.0,NW,8.1,-,N/A,Snow,Light Snow,310,2014-01-25 05:55:00